Time,TemperatureF,DewpointF,PressureIn,WindDirection,WindDirectionDegrees,WindSpeedMPH,WindSpeedGustMPH,Humidity,HourlyPrecipIn,Conditions,Clouds,dailyrainin,SoftwareType,DateUTC
2013-02-27 00:04:00,38.5,29.2,29.20,WNW,300,5.8,8.1,69,0.00,RA,,0.00,WeatherDisplay:10.37,2013-02-27 06:04:00,
2013-02-27 00:09:00,38.5,29.2,30.11,NNW,342,7.6,10.4,69,0.00,RA,,0.00,WeatherDisplay:10.37,2013-02-27 06:09:00,
2013-02-27 00:14:00,38.5,29.2,30.11,WNW,299,6.3,8.1,69,0.00,CLR,,0.00,WeatherDisplay:10.37,2013-02-27 06:14:00,
2013-02-27 00:19:00,38.5,29.2,30.11,NW,318,5.8,8.1,69,0.00,CLR,,0.00,WeatherDisplay:10.37,2013-02-27 06:19:00,
2013-02-27 00:24:00,38.5,29.2,29.20,West,272,5.8,5.8,69,0.00,CLR,,0.00,WeatherDisplay:10.37,2013-02-27 06:24:00,
2013-02-27 00:29:00,38.5,28.8,29.20,WSW,243,6.3,6.3,68,0.00,CLR,,0.00,WeatherDisplay:10.37,2013-02-27 06:29:00,
2013-02-27 00:34:00,38.5,28.8,29.20,NNW,335,5.4,8.1,68,0.00,CLR,,0.00,WeatherDisplay:10.37,2013-02-27 06:34:00,
2013-02-27 00:39:00,38.3,28.7,29.20,SW,235,5.4,5.8,68,0.00,CLR,,0.00,WeatherDisplay:10.37,2013-02-27 06:39:00,
2013-02-27 00:44:00,38.3,28.7,29.20,WNW,287,4.9,5.8,68,0.00,CLR,,0.00,WeatherDisplay:10.37,2013-02-27 06:44:00,
2013-02-27 00:49:00,38.3,28.7,29.20,West,280,8.0,11.5,68,0.00,CLR,,0.00,WeatherDisplay:10.37,2013-02-27 06:49:00,
2013-02-27 00:54:00,38.3,29.0,29.20,West,259,5.4,10.4,69,0.00,CLR,,0.00,WeatherDisplay:10.37,2013-02-27 06:54:00,
2013-02-27 00:59:00,38.3,28.7,29.20,North,0,5.4,8.1,68,0.00,CLR,,0.00,WeatherDisplay:10.37,2013-02-27 06:59:00,
2013-02-27 01:04:00,38.3,28.7,29.20,West,280,4.5,8.1,68,0.00,CLR,,0.00,WeatherDisplay:10.37,2013-02-27 07:04:00,
2013-02-27 01:09:00,38.3,28.7,29.20,WNW,292,2.2,5.8,68,0.00,CLR,,0.00,WeatherDisplay:10.37,2013-02-27 07:09:00,
2013-02-27 01:14:00,38.1,28.5,29.20,WNW,286,4.0,5.8,68,0.00,CLR,,0.00,WeatherDisplay:10.37,2013-02-27 07:14:00,
2013-02-27 01:19:00,37.9,28.7,29.20,NW,324,3.6,5.8,69,0.00,CLR,,0.00,WeatherDisplay:10.37,2013-02-27 07:19:00,
2013-02-27 01:24:00,37.9,28.7,29.20,WSW,257,4.9,9.2,69,0.00,CLR,,0.00,WeatherDisplay:10.37,2013-02-27 07:24:00,
2013-02-27 01:29:00,37.9,28.7,29.20,NNW,332,4.5,5.8,69,0.00,CLR,,0.00,WeatherDisplay:10.37,2013-02-27 07:29:00,
2013-02-27 01:34:00,37.9,28.7,29.20,NW,322,5.4,5.8,69,0.00,CLR,,0.00,WeatherDisplay:10.37,2013-02-27 07:34:00,
2013-02-27 01:39:00,37.9,28.7,29.20,West,273,6.3,8.1,69,0.00,CLR,,0.00,WeatherDisplay:10.37,2013-02-27 07:39:00,
2013-02-27 01:44:00,37.9,28.7,29.20,West,270,5.4,8.1,69,0.00,CLR,,0.00,WeatherDisplay:10.37,2013-02-27 07:44:00,
2013-02-27 01:49:00,38.1,29.2,29.20,NW,317,5.8,8.1,70,0.00,CLR,,0.00,WeatherDisplay:10.37,2013-02-27 07:49:00,
2013-02-27 01:54:00,38.1,29.2,29.20,NW,306,6.7,10.4,70,0.00,CLR,,0.00,WeatherDisplay:10.37,2013-02-27 07:54:00,
2013-02-27 01:59:00,38.1,29.2,29.20,NW,312,3.6,5.8,70,0.00,CLR,,0.00,WeatherDisplay:10.37,2013-02-27 07:59:00,
2013-02-27 02:04:00,38.1,28.8,29.20,WSW,258,6.3,8.1,69,0.00,CLR,,0.00,WeatherDisplay:10.37,2013-02-27 08:04:00,
2013-02-27 02:09:00,38.1,28.8,29.20,West,272,5.8,5.8,69,0.00,CLR,,0.00,WeatherDisplay:10.37,2013-02-27 08:09:00,
2013-02-27 02:14:00,38.1,28.8,29.20,West,279,5.8,8.1,69,0.00,CLR,,0.00,WeatherDisplay:10.37,2013-02-27 08:14:00,
2013-02-27 02:19:00,38.1,28.5,29.20,NW,313,4.9,5.8,68,0.00,CLR,,0.00,WeatherDisplay:10.37,2013-02-27 08:19:00,
2013-02-27 02:24:00,38.1,28.5,29.20,NW,312,4.5,8.1,68,0.00,CLR,,0.00,WeatherDisplay:10.37,2013-02-27 08:24:00,
2013-02-27 02:29:00,38.1,28.5,29.20,NW,317,5.4,5.8,68,0.00,CLR,,0.00,WeatherDisplay:10.37,2013-02-27 08:29:00,
2013-02-27 02:34:00,37.9,28.3,29.20,WSW,241,4.9,5.8,68,0.00,CLR,,0.00,WeatherDisplay:10.37,2013-02-27 08:34:00,
2013-02-27 02:39:00,37.9,28.3,29.20,West,264,5.8,5.8,68,0.00,CLR,,0.00,WeatherDisplay:10.37,2013-02-27 08:39:00,
2013-02-27 02:44:00,37.9,28.3,29.20,West,275,4.0,5.8,68,0.00,CLR,,0.00,WeatherDisplay:10.37,2013-02-27 08:44:00,
2013-02-27 02:49:00,37.9,28.3,29.20,NW,318,4.9,5.8,68,0.00,CLR,,0.00,WeatherDisplay:10.37,2013-02-27 08:49:00,
2013-02-27 02:54:00,37.9,28.3,29.20,NW,313,4.5,4.6,68,0.00,CLR,,0.00,WeatherDisplay:10.37,2013-02-27 08:54:00,
2013-02-27 02:59:00,37.9,28.3,29.20,West,264,4.9,5.8,68,0.00,CLR,,0.00,WeatherDisplay:10.37,2013-02-27 08:59:00,
2013-02-27 03:04:00,37.9,28.3,29.20,NW,309,4.9,5.8,68,0.00,CLR,,0.00,WeatherDisplay:10.37,2013-02-27 09:04:00,
2013-02-27 03:09:00,37.9,28.3,29.20,WNW,284,4.0,5.8,68,0.00,CLR,,0.00,WeatherDisplay:10.37,2013-02-27 09:09:00,
2013-02-27 03:14:00,37.9,28.3,29.20,WNW,302,3.6,5.8,68,0.00,CLR,,0.00,WeatherDisplay:10.37,2013-02-27 09:14:00,
2013-02-27 03:19:00,37.9,28.3,29.20,WNW,290,4.0,9.2,68,0.00,CLR,,0.00,WeatherDisplay:10.37,2013-02-27 09:19:00,
2013-02-27 03:24:00,37.9,28.7,29.20,WNW,298,4.9,5.8,69,0.00,CLR,,0.00,WeatherDisplay:10.37,2013-02-27 09:24:00,
2013-02-27 03:29:00,37.9,28.7,29.20,NW,305,4.5,5.8,69,0.00,CLR,,0.00,WeatherDisplay:10.37,2013-02-27 09:29:00,
2013-02-27 03:34:00,37.9,28.3,29.20,NW,305,6.7,8.1,68,0.00,CLR,,0.00,WeatherDisplay:10.37,2013-02-27 09:34:00,
2013-02-27 03:39:00,37.9,28.3,29.20,WNW,293,5.8,12.7,68,0.00,CLR,,0.00,WeatherDisplay:10.37,2013-02-27 09:39:00,
2013-02-27 03:44:00,37.9,28.3,29.20,WNW,297,5.4,8.1,68,0.00,CLR,,0.00,WeatherDisplay:10.37,2013-02-27 09:44:00,
2013-02-27 03:49:00,37.8,27.8,29.20,NW,306,3.1,6.3,67,0.00,CLR,,0.00,WeatherDisplay:10.37,2013-02-27 09:49:00,
2013-02-27 03:54:00,37.8,27.8,29.20,West,261,4.9,5.8,67,0.00,CLR,,0.00,WeatherDisplay:10.37,2013-02-27 09:54:00,
2013-02-27 03:59:00,37.8,27.8,29.20,NW,324,3.6,5.8,67,0.00,CLR,,0.00,WeatherDisplay:10.37,2013-02-27 09:59:00,
2013-02-27 04:04:00,37.6,27.6,29.20,NW,325,5.8,8.1,67,0.00,CLR,,0.00,WeatherDisplay:10.37,2013-02-27 10:04:00,
2013-02-27 04:09:00,37.6,27.6,29.20,West,279,4.5,5.8,67,0.00,CLR,,0.00,WeatherDisplay:10.37,2013-02-27 10:09:00,
2013-02-27 04:14:00,37.6,27.6,29.20,WNW,293,3.6,5.8,67,0.00,CLR,,0.00,WeatherDisplay:10.37,2013-02-27 10:14:00,
2013-02-27 04:19:00,37.4,27.4,29.20,NW,316,5.4,8.1,67,0.00,CLR,,0.00,WeatherDisplay:10.37,2013-02-27 10:19:00,
2013-02-27 04:24:00,37.6,27.6,29.20,NW,311,6.7,10.4,67,0.00,CLR,,0.00,WeatherDisplay:10.37,2013-02-27 10:24:00,
2013-02-27 04:29:00,37.6,27.6,29.20,West,269,8.7,10.4,67,0.00,CLR,,0.00,WeatherDisplay:10.37,2013-02-27 10:29:00,
2013-02-27 04:34:00,37.4,27.1,29.20,NW,305,7.2,8.1,66,0.00,CLR,,0.00,WeatherDisplay:10.37,2013-02-27 10:34:00,
2013-02-27 04:39:00,37.4,27.1,29.20,North,357,8.3,12.7,66,0.00,CLR,,0.00,WeatherDisplay:10.37,2013-02-27 10:39:00,
2013-02-27 04:44:00,37.4,27.1,29.20,WNW,303,7.2,9.2,66,0.00,CLR,,0.00,WeatherDisplay:10.37,2013-02-27 10:44:00,
2013-02-27 04:49:00,37.4,27.1,29.20,North,0,4.5,5.8,66,0.00,CLR,,0.00,WeatherDisplay:10.37,2013-02-27 10:49:00,
2013-02-27 04:54:00,37.4,27.1,29.20,NW,323,7.6,9.2,66,0.00,CLR,,0.00,WeatherDisplay:10.37,2013-02-27 10:54:00,
2013-02-27 04:59:00,37.2,27.3,29.20,NW,318,3.1,6.3,67,0.00,CLR,,0.00,WeatherDisplay:10.37,2013-02-27 10:59:00,
2013-02-27 05:04:00,37.2,27.3,29.20,WNW,286,4.0,5.8,67,0.00,CLR,,0.00,WeatherDisplay:10.37,2013-02-27 11:04:00,
2013-02-27 05:09:00,37.2,27.3,29.20,NW,305,5.8,8.1,67,0.00,CLR,,0.00,WeatherDisplay:10.37,2013-02-27 11:09:00,
2013-02-27 05:14:00,37.2,27.3,29.20,NNW,329,5.4,10.4,67,0.00,CLR,,0.00,WeatherDisplay:10.37,2013-02-27 11:14:00,
2013-02-27 05:19:00,37.2,27.3,29.20,NNW,330,6.3,9.2,67,0.00,CLR,,0.00,WeatherDisplay:10.37,2013-02-27 11:19:00,
2013-02-27 05:24:00,37.2,27.3,29.20,NW,307,4.0,4.6,67,0.00,CLR,,0.00,WeatherDisplay:10.37,2013-02-27 11:24:00,
2013-02-27 05:29:00,37.2,27.3,29.20,NW,309,4.5,9.2,67,0.00,CLR,,0.00,WeatherDisplay:10.37,2013-02-27 11:29:00,
2013-02-27 05:34:00,37.2,27.3,29.20,NW,308,4.0,6.9,67,0.00,CLR,,0.00,WeatherDisplay:10.37,2013-02-27 11:34:00,
2013-02-27 05:39:00,37.2,27.3,29.20,NW,312,3.6,5.8,67,0.00,CLR,,0.00,WeatherDisplay:10.37,2013-02-27 11:39:00,
2013-02-27 05:44:00,37.2,27.3,29.20,NW,317,6.3,8.1,67,0.00,CLR,,0.00,WeatherDisplay:10.37,2013-02-27 11:44:00,
2013-02-27 05:49:00,37.2,27.3,29.20,WNW,297,6.7,8.1,67,0.00,CLR,,0.00,WeatherDisplay:10.37,2013-02-27 11:49:00,
2013-02-27 05:54:00,37.2,27.3,29.20,NW,318,3.6,3.6,67,0.00,CLR,,0.00,WeatherDisplay:10.37,2013-02-27 11:54:00,
2013-02-27 05:59:00,37.2,27.3,29.20,NW,308,5.8,5.8,67,0.00,CLR,,0.00,WeatherDisplay:10.37,2013-02-27 11:59:00,
2013-02-27 06:04:00,37.2,27.3,29.20,NW,311,4.9,5.8,67,0.00,CLR,,0.00,WeatherDisplay:10.37,2013-02-27 12:04:00,
2013-02-27 06:09:00,37.2,27.3,29.20,WNW,285,4.5,5.8,67,0.00,CLR,,0.00,WeatherDisplay:10.37,2013-02-27 12:09:00,
2013-02-27 06:14:00,37.2,27.6,29.20,WNW,294,2.7,5.8,68,0.00,CLR,,0.00,WeatherDisplay:10.37,2013-02-27 12:14:00,
2013-02-27 06:19:00,37.2,27.6,29.20,West,265,4.5,8.1,68,0.00,CLR,,0.00,WeatherDisplay:10.37,2013-02-27 12:19:00,
2013-02-27 06:24:00,37.2,27.6,29.20,NW,314,4.0,5.8,68,0.00,CLR,,0.00,WeatherDisplay:10.37,2013-02-27 12:24:00,
2013-02-27 06:29:00,37.2,27.3,29.20,NW,322,4.0,5.8,67,0.00,CLR,,0.00,WeatherDisplay:10.37,2013-02-27 12:29:00,
2013-02-27 06:34:00,37.2,27.3,29.20,NW,304,4.9,8.1,67,0.00,CLR,,0.00,WeatherDisplay:10.37,2013-02-27 12:34:00,
2013-02-27 06:39:00,37.2,27.3,29.20,WNW,286,5.4,8.1,67,0.00,CLR,,0.00,WeatherDisplay:10.37,2013-02-27 12:39:00,
2013-02-27 06:44:00,37.0,27.1,29.20,NW,325,6.7,11.5,67,0.00,CLR,,0.00,WeatherDisplay:10.37,2013-02-27 12:44:00,
2013-02-27 06:49:00,37.0,26.7,29.20,WNW,303,7.2,10.4,66,0.00,CLR,,0.00,WeatherDisplay:10.37,2013-02-27 12:49:00,
2013-02-27 06:54:00,36.9,26.6,29.20,WSW,254,5.8,8.1,66,0.00,CLR,,0.00,WeatherDisplay:10.37,2013-02-27 12:54:00,
2013-02-27 06:59:00,36.9,26.6,29.20,WNW,300,4.9,5.8,66,0.00,CLR,,0.00,WeatherDisplay:10.37,2013-02-27 12:59:00,
2013-02-27 07:04:00,36.9,26.6,29.20,WSW,258,4.9,5.8,66,0.00,CLR,,0.00,WeatherDisplay:10.37,2013-02-27 13:04:00,
2013-02-27 07:09:00,36.9,26.6,29.20,NW,318,4.9,6.9,66,0.00,CLR,,0.00,WeatherDisplay:10.37,2013-02-27 13:09:00,
2013-02-27 07:22:00,36.9,26.6,29.20,West,281,2.7,5.8,66,0.00,CLR,,0.00,WeatherDisplay:10.37,2013-02-27 13:22:00,
2013-02-27 07:27:00,36.9,26.6,29.20,West,259,5.4,5.8,66,0.00,CLR,,0.00,WeatherDisplay:10.37,2013-02-27 13:27:00,
2013-02-27 07:32:00,37.0,26.7,29.20,NW,305,4.0,6.9,66,0.00,CLR,,0.00,WeatherDisplay:10.37,2013-02-27 13:32:00,
2013-02-27 07:37:00,37.0,26.7,29.20,NW,304,4.5,8.1,66,0.00,CLR,,0.00,WeatherDisplay:10.37,2013-02-27 13:37:00,
2013-02-27 07:42:00,37.0,26.7,29.20,SW,227,4.5,5.8,66,0.00,CLR,,0.00,WeatherDisplay:10.37,2013-02-27 13:42:00,
2013-02-27 07:47:00,37.2,26.9,29.20,West,267,4.0,6.9,66,0.00,CLR,,0.00,WeatherDisplay:10.37,2013-02-27 13:47:00,
2013-02-27 07:52:00,37.4,27.1,29.20,West,267,3.6,4.6,66,0.00,CLR,,0.00,WeatherDisplay:10.37,2013-02-27 13:52:00,
2013-02-27 07:57:00,37.4,27.1,29.20,WSW,255,4.9,5.8,66,0.00,CLR,,0.00,WeatherDisplay:10.37,2013-02-27 13:57:00,
2013-02-27 08:02:00,37.6,27.2,29.20,West,281,4.5,8.1,66,0.00,CLR,,0.00,WeatherDisplay:10.37,2013-02-27 14:02:00,
2013-02-27 08:07:00,37.8,27.4,29.20,WSW,258,4.0,5.8,66,0.00,CLR,,0.00,WeatherDisplay:10.37,2013-02-27 14:07:00,
2013-02-27 08:12:00,37.9,27.6,29.20,WNW,291,5.8,8.1,66,0.00,CLR,,0.00,WeatherDisplay:10.37,2013-02-27 14:12:00,
2013-02-27 08:18:00,38.3,27.9,29.20,West,280,4.0,5.8,66,0.00,CLR,,0.00,WeatherDisplay:10.37,2013-02-27 14:18:00,
2013-02-27 08:23:00,38.5,28.1,30.11,NW,308,4.5,8.1,66,0.00,CLR,,0.00,WeatherDisplay:10.37,2013-02-27 14:23:00,
2013-02-27 08:28:00,38.8,28.1,30.11,SW,230,6.7,9.2,65,0.00,CLR,,0.00,WeatherDisplay:10.37,2013-02-27 14:28:00,
2013-02-27 08:33:00,39.2,28.4,30.11,West,266,4.0,8.1,65,0.00,CLR,,0.00,WeatherDisplay:10.37,2013-02-27 14:33:00,
2013-02-27 08:38:00,39.7,28.5,29.20,WNW,288,7.2,7.2,64,0.00,CLR,,0.00,WeatherDisplay:10.37,2013-02-27 14:38:00,
2013-02-27 08:43:00,39.9,27.9,29.20,WNW,297,4.5,9.2,62,0.00,CLR,,0.00,WeatherDisplay:10.37,2013-02-27 14:43:00,
2013-02-27 08:48:00,39.9,27.5,29.20,WNW,295,6.7,12.7,61,0.00,CLR,,0.00,WeatherDisplay:10.37,2013-02-27 14:48:00,
2013-02-27 08:53:00,39.9,26.7,27.80,NW,306,4.9,10.4,59,0.00,CLR,,0.00,WeatherDisplay:10.37,2013-02-27 14:53:00,
2013-02-27 08:58:00,40.1,26.9,27.80,WNW,284,4.5,5.8,59,0.00,CLR,,0.00,WeatherDisplay:10.37,2013-02-27 14:58:00,
2013-02-27 09:03:00,40.1,26.9,27.80,WNW,292,4.0,5.8,59,0.00,CLR,,0.00,WeatherDisplay:10.37,2013-02-27 15:03:00,
2013-02-27 09:08:00,39.9,26.3,29.20,WNW,303,5.4,8.1,58,0.00,CLR,,0.00,WeatherDisplay:10.37,2013-02-27 15:08:00,
2013-02-27 09:13:00,39.9,26.3,29.20,West,281,6.7,8.1,58,0.00,CLR,,0.00,WeatherDisplay:10.37,2013-02-27 15:13:00,
2013-02-27 09:18:00,40.1,26.5,29.20,WNW,303,7.2,9.2,58,0.00,CLR,,0.00,WeatherDisplay:10.37,2013-02-27 15:18:00,
2013-02-27 09:23:00,40.1,26.1,29.20,WNW,285,5.4,8.1,57,0.00,CLR,,0.00,WeatherDisplay:10.37,2013-02-27 15:23:00,
2013-02-27 09:28:00,40.1,26.1,29.20,WSW,246,6.7,8.1,57,0.00,CLR,,0.00,WeatherDisplay:10.37,2013-02-27 15:28:00,
2013-02-27 09:33:00,39.9,25.9,29.20,NW,313,4.5,5.8,57,0.00,CLR,,0.00,WeatherDisplay:10.37,2013-02-27 15:33:00,
2013-02-27 09:38:00,39.6,25.6,29.20,West,264,4.9,8.7,57,0.00,CLR,,0.00,WeatherDisplay:10.37,2013-02-27 15:38:00,
2013-02-27 09:43:00,39.4,25.4,29.20,NW,311,4.9,5.8,57,0.00,CLR,,0.00,WeatherDisplay:10.37,2013-02-27 15:43:00,
2013-02-27 09:48:00,39.2,25.2,29.20,WNW,299,5.8,12.7,57,0.00,CLR,,0.00,WeatherDisplay:10.37,2013-02-27 15:48:00,
2013-02-27 09:53:00,39.0,25.5,29.20,WNW,300,5.8,8.1,58,0.00,CLR,,0.00,WeatherDisplay:10.37,2013-02-27 15:53:00,
2013-02-27 09:58:00,38.8,25.3,29.20,NW,317,4.5,5.8,58,0.00,CLR,,0.00,WeatherDisplay:10.37,2013-02-27 15:58:00,
2013-02-27 10:03:00,38.8,25.3,29.20,WNW,287,4.5,5.8,58,0.00,CLR,,0.00,WeatherDisplay:10.37,2013-02-27 16:03:00,
2013-02-27 10:08:00,38.7,25.1,29.20,NW,312,4.5,5.8,58,0.00,CLR,,0.00,WeatherDisplay:10.37,2013-02-27 16:08:00,
2013-02-27 10:13:00,38.7,25.1,29.20,NW,325,7.2,12.7,58,0.00,CLR,,0.00,WeatherDisplay:10.37,2013-02-27 16:13:00,
2013-02-27 10:18:00,38.7,25.6,29.20,NNW,328,5.8,8.1,59,0.00,CLR,,0.00,WeatherDisplay:10.37,2013-02-27 16:18:00,
2013-02-27 10:23:00,38.7,25.1,30.11,WNW,288,4.9,5.8,58,0.00,CLR,,0.00,WeatherDisplay:10.37,2013-02-27 16:23:00,
2013-02-27 10:28:00,38.7,25.6,30.11,NW,311,6.3,10.4,59,0.00,CLR,,0.00,WeatherDisplay:10.37,2013-02-27 16:28:00,
2013-02-27 10:33:00,38.7,25.1,30.11,NW,316,5.4,8.1,58,0.00,CLR,,0.00,WeatherDisplay:10.37,2013-02-27 16:33:00,
2013-02-27 10:38:00,38.7,25.1,29.20,NW,317,4.9,6.9,58,0.00,CLR,,0.00,WeatherDisplay:10.37,2013-02-27 16:38:00,
2013-02-27 10:43:00,38.7,25.1,29.20,West,263,5.4,8.1,58,0.00,CLR,,0.00,WeatherDisplay:10.37,2013-02-27 16:43:00,
2013-02-27 10:48:00,38.5,25.4,29.20,WSW,237,9.6,13.8,59,0.00,CLR,,0.00,WeatherDisplay:10.37,2013-02-27 16:48:00,
2013-02-27 10:53:00,38.5,25.4,29.20,NNW,343,4.5,8.1,59,0.00,CLR,,0.00,WeatherDisplay:10.37,2013-02-27 16:53:00,
2013-02-27 10:58:00,38.5,25.4,29.20,West,271,4.5,5.8,59,0.00,CLR,,0.00,WeatherDisplay:10.37,2013-02-27 16:58:00,
2013-02-27 11:03:00,38.7,26.0,29.20,West,271,6.3,8.1,60,0.00,CLR,,0.00,WeatherDisplay:10.37,2013-02-27 17:03:00,
2013-02-27 11:08:00,38.7,26.0,29.87,WSW,245,5.8,8.1,60,0.00,CLR,,0.00,WeatherDisplay:10.37,2013-02-27 17:08:00,
2013-02-27 11:13:00,38.7,26.0,29.87,WNW,298,5.8,11.5,60,0.00,CLR,,0.00,WeatherDisplay:10.37,2013-02-27 17:13:00,
2013-02-27 11:18:00,38.5,25.4,29.87,West,280,6.7,10.4,59,0.00,CLR,,0.00,WeatherDisplay:10.37,2013-02-27 17:18:00,
2013-02-27 11:23:00,38.5,25.4,29.20,NW,312,6.7,10.4,59,0.00,CLR,,0.00,WeatherDisplay:10.37,2013-02-27 17:23:00,
2013-02-27 11:28:00,38.7,26.0,29.20,NW,326,5.8,8.1,60,0.00,CLR,,0.00,WeatherDisplay:10.37,2013-02-27 17:28:00,
2013-02-27 11:33:00,38.7,26.0,29.20,NNW,334,5.8,9.2,60,0.00,CLR,,0.00,WeatherDisplay:10.37,2013-02-27 17:33:00,
2013-02-27 11:38:00,38.8,26.1,31.05,NW,312,6.7,9.2,60,0.00,CLR,,0.00,WeatherDisplay:10.37,2013-02-27 17:38:00,
2013-02-27 11:43:00,38.8,26.1,31.05,West,261,10.9,11.5,60,0.00,CLR,,0.00,WeatherDisplay:10.37,2013-02-27 17:43:00,
2013-02-27 11:48:00,38.8,26.1,31.05,NW,314,7.2,8.1,60,0.00,CLR,,0.00,WeatherDisplay:10.37,2013-02-27 17:48:00,
2013-02-27 11:53:00,38.8,26.1,31.05,SSW,193,7.6,8.1,60,0.00,CLR,,0.00,WeatherDisplay:10.37,2013-02-27 17:53:00,
2013-02-27 11:58:00,39.0,25.9,31.05,NW,319,4.9,9.2,59,0.00,CLR,,0.00,WeatherDisplay:10.37,2013-02-27 17:58:00,
2013-02-27 12:03:00,39.2,26.1,31.05,NW,319,7.2,12.7,59,0.00,CLR,,0.00,WeatherDisplay:10.37,2013-02-27 18:03:00,
2013-02-27 12:08:00,39.2,26.1,30.18,West,274,6.3,9.2,59,0.00,CLR,,0.00,WeatherDisplay:10.37,2013-02-27 18:08:00,
2013-02-27 12:13:00,39.2,26.1,30.18,NW,316,8.0,8.1,59,0.00,CLR,,0.00,WeatherDisplay:10.37,2013-02-27 18:13:00,
2013-02-27 12:18:00,39.0,25.5,30.18,West,266,8.0,11.5,58,0.00,CLR,,0.00,WeatherDisplay:10.37,2013-02-27 18:18:00,
2013-02-27 12:23:00,38.8,25.3,28.42,WNW,291,9.2,12.7,58,0.00,CLR,,0.00,WeatherDisplay:10.37,2013-02-27 18:23:00,
2013-02-27 12:28:00,39.0,25.9,28.42,NW,310,6.7,9.2,59,0.00,CLR,,0.00,WeatherDisplay:10.37,2013-02-27 18:28:00,
2013-02-27 12:33:00,39.2,25.6,28.42,West,265,6.7,11.5,58,0.00,CLR,,0.00,WeatherDisplay:10.37,2013-02-27 18:33:00,
2013-02-27 12:38:00,39.7,26.2,27.48,WNW,295,6.3,9.2,58,0.00,CLR,,0.00,WeatherDisplay:10.37,2013-02-27 18:38:00,
2013-02-27 12:43:00,39.9,26.3,27.48,NW,314,5.8,9.2,58,0.00,CLR,,0.00,WeatherDisplay:10.37,2013-02-27 18:43:00,
2013-02-27 12:48:00,39.7,25.7,27.48,West,271,7.2,11.5,57,0.00,CLR,,0.00,WeatherDisplay:10.37,2013-02-27 18:48:00,
2013-02-27 12:53:00,39.7,25.7,29.71,NW,308,4.5,5.8,57,0.00,CLR,,0.00,WeatherDisplay:10.37,2013-02-27 18:53:00,
2013-02-27 12:58:00,39.7,25.7,29.71,WNW,293,5.8,8.1,57,0.00,CLR,,0.00,WeatherDisplay:10.37,2013-02-27 18:58:00,
2013-02-27 13:03:00,39.7,25.7,29.71,West,267,7.2,8.1,57,0.00,CLR,,0.00,WeatherDisplay:10.37,2013-02-27 19:03:00,
2013-02-27 13:08:00,39.6,25.6,29.47,WNW,300,4.9,9.2,57,0.00,CLR,,0.00,WeatherDisplay:10.37,2013-02-27 19:08:00,
2013-02-27 13:13:00,39.7,25.7,29.47,NW,304,7.6,10.4,57,0.00,CLR,,0.00,WeatherDisplay:10.37,2013-02-27 19:13:00,
2013-02-27 13:18:00,39.7,25.7,29.47,West,276,6.7,12.7,57,0.00,CLR,,0.00,WeatherDisplay:10.37,2013-02-27 19:18:00,
2013-02-27 13:23:00,39.7,25.7,31.01,NNW,335,4.9,5.8,57,0.00,CLR,,0.00,WeatherDisplay:10.37,2013-02-27 19:23:00,
2013-02-27 13:28:00,39.9,25.9,31.01,WNW,284,4.9,8.1,57,0.00,CLR,,0.00,WeatherDisplay:10.37,2013-02-27 19:28:00,
2013-02-27 13:33:00,39.9,25.9,31.01,NNW,341,4.5,6.3,57,0.00,CLR,,0.00,WeatherDisplay:10.37,2013-02-27 19:33:00,
2013-02-27 13:38:00,40.3,26.2,29.90,NW,304,6.7,9.2,57,0.00,CLR,,0.00,WeatherDisplay:10.37,2013-02-27 19:38:00,
2013-02-27 13:43:00,40.5,26.4,29.90,NW,316,7.6,11.5,57,0.00,CLR,,0.00,WeatherDisplay:10.37,2013-02-27 19:43:00,
2013-02-27 13:48:00,40.5,26.0,29.90,WNW,301,4.5,6.9,56,0.00,CLR,,0.00,WeatherDisplay:10.37,2013-02-27 19:48:00,
2013-02-27 13:53:00,40.6,26.2,29.96,WNW,298,8.0,11.5,56,0.00,CLR,,0.00,WeatherDisplay:10.37,2013-02-27 19:53:00,
2013-02-27 13:58:00,41.0,26.5,29.96,WNW,302,6.3,8.1,56,0.00,CLR,,0.00,WeatherDisplay:10.37,2013-02-27 19:58:00,
2013-02-27 14:03:00,41.4,26.8,29.96,NW,314,7.2,9.2,56,0.00,CLR,,0.00,WeatherDisplay:10.37,2013-02-27 20:03:00,
2013-02-27 14:08:00,41.5,27.0,26.18,WNW,282,6.7,10.4,56,0.00,CLR,,0.00,WeatherDisplay:10.37,2013-02-27 20:08:00,
2013-02-27 14:13:00,41.7,26.7,26.18,NW,326,6.7,9.2,55,0.00,CLR,,0.00,WeatherDisplay:10.37,2013-02-27 20:13:00,
2013-02-27 14:18:00,41.9,26.9,26.18,WNW,283,7.6,10.4,55,0.00,CLR,,0.00,WeatherDisplay:10.37,2013-02-27 20:18:00,
2013-02-27 14:23:00,42.3,27.2,27.33,North,353,7.2,10.4,55,0.00,CLR,,0.00,WeatherDisplay:10.37,2013-02-27 20:23:00,
2013-02-27 14:28:00,42.3,27.2,27.33,NNW,333,8.7,12.7,55,0.00,CLR,,0.00,WeatherDisplay:10.37,2013-02-27 20:28:00,
2013-02-27 14:33:00,42.3,27.2,27.33,North,350,5.4,8.1,55,0.00,CLR,,0.00,WeatherDisplay:10.37,2013-02-27 20:33:00,
2013-02-27 14:38:00,42.1,27.1,29.12,NNW,339,9.6,10.4,55,0.00,CLR,,0.00,WeatherDisplay:10.37,2013-02-27 20:38:00,
2013-02-27 14:43:00,41.9,26.9,29.12,WNW,291,6.7,10.5,55,0.00,CLR,,0.00,WeatherDisplay:10.37,2013-02-27 20:43:00,
2013-02-27 14:48:00,41.7,26.7,29.12,WNW,301,5.8,6.3,55,0.00,CLR,,0.00,WeatherDisplay:10.37,2013-02-27 20:48:00,
2013-02-27 14:53:00,41.9,26.9,27.45,NNW,330,6.7,11.5,55,0.00,CLR,,0.00,WeatherDisplay:10.37,2013-02-27 20:53:00,
2013-02-27 14:58:00,42.1,27.1,27.45,NW,315,6.7,11.5,55,0.00,CLR,,0.00,WeatherDisplay:10.37,2013-02-27 20:58:00,
2013-02-27 15:03:00,41.9,26.9,27.45,NW,324,5.8,12.7,55,0.00,CLR,,0.00,WeatherDisplay:10.37,2013-02-27 21:03:00,
2013-02-27 15:08:00,41.9,26.9,29.25,West,262,4.0,8.1,55,0.00,CLR,,0.00,WeatherDisplay:10.37,2013-02-27 21:08:00,
2013-02-27 15:13:00,41.9,26.9,29.25,West,276,7.2,10.4,55,0.00,CLR,,0.00,WeatherDisplay:10.37,2013-02-27 21:13:00,
2013-02-27 15:18:00,41.9,26.9,29.25,WNW,290,6.7,9.2,55,0.00,CLR,,0.00,WeatherDisplay:10.37,2013-02-27 21:18:00,
2013-02-27 15:23:00,41.9,26.9,26.65,SSW,205,5.4,5.8,55,0.00,CLR,,0.00,WeatherDisplay:10.37,2013-02-27 21:23:00,
2013-02-27 15:28:00,42.1,27.1,26.65,NW,318,7.2,11.5,55,0.00,CLR,,0.00,WeatherDisplay:10.37,2013-02-27 21:28:00,
2013-02-27 15:33:00,41.9,26.9,26.65,NW,325,4.5,5.8,55,0.00,CLR,,0.00,WeatherDisplay:10.37,2013-02-27 21:33:00,
2013-02-27 15:38:00,41.9,26.9,26.83,NW,305,6.3,8.1,55,0.00,CLR,,0.00,WeatherDisplay:10.37,2013-02-27 21:38:00,
2013-02-27 15:43:00,41.7,26.7,26.83,West,267,5.8,8.1,55,0.00,CLR,,0.00,WeatherDisplay:10.37,2013-02-27 21:43:00,
2013-02-27 15:48:00,41.9,26.9,26.83,WSW,248,10.9,15.0,55,0.00,CLR,,0.00,WeatherDisplay:10.37,2013-02-27 21:48:00,
2013-02-27 15:53:00,41.7,26.7,30.77,WNW,297,5.4,8.1,55,0.00,CLR,,0.00,WeatherDisplay:10.37,2013-02-27 21:53:00,
2013-02-27 15:58:00,41.5,26.6,30.77,WSW,255,5.8,12.7,55,0.00,CLR,,0.00,WeatherDisplay:10.37,2013-02-27 21:58:00,
2013-02-27 16:03:00,41.4,26.4,30.77,NW,314,3.6,6.3,55,0.00,CLR,,0.00,WeatherDisplay:10.37,2013-02-27 22:03:00,
2013-02-27 16:08:00,41.2,26.2,27.33,SSW,200,6.3,9.2,55,0.00,CLR,,0.00,WeatherDisplay:10.37,2013-02-27 22:08:00,
2013-02-27 16:13:00,41.0,26.1,27.33,WNW,282,4.9,8.1,55,0.00,CLR,,0.00,WeatherDisplay:10.37,2013-02-27 22:13:00,
2013-02-27 16:18:00,40.8,25.9,27.33,NW,311,8.7,10.4,55,0.00,CLR,,0.00,WeatherDisplay:10.37,2013-02-27 22:18:00,
2013-02-27 16:23:00,40.8,25.9,29.31,West,271,5.4,8.7,55,0.00,CLR,,0.00,WeatherDisplay:10.37,2013-02-27 22:23:00,
2013-02-27 16:28:00,40.6,25.7,29.31,West,273,5.4,8.1,55,0.00,CLR,,0.00,WeatherDisplay:10.37,2013-02-27 22:28:00,
2013-02-27 16:33:00,40.5,25.5,29.31,WNW,302,6.7,10.4,55,0.00,CLR,,0.00,WeatherDisplay:10.37,2013-02-27 22:33:00,
2013-02-27 16:38:00,40.5,25.5,27.00,NW,322,6.3,9.2,55,0.00,CLR,,0.00,WeatherDisplay:10.37,2013-02-27 22:38:00,
2013-02-27 16:43:00,40.3,25.4,27.00,West,278,5.8,8.1,55,0.00,CLR,,0.00,WeatherDisplay:10.37,2013-02-27 22:43:00,
2013-02-27 16:48:00,40.3,25.4,27.00,NW,326,3.6,5.8,55,0.00,CLR,,0.00,WeatherDisplay:10.37,2013-02-27 22:48:00,
2013-02-27 16:53:00,40.1,25.2,27.45,West,273,7.6,12.7,55,0.00,CLR,,0.00,WeatherDisplay:10.37,2013-02-27 22:53:00,
2013-02-27 16:58:00,40.3,25.4,27.45,NW,305,6.3,8.1,55,0.00,CLR,,0.00,WeatherDisplay:10.37,2013-02-27 22:58:00,
2013-02-27 17:03:00,40.3,25.4,27.45,NW,317,7.2,10.4,55,0.00,CLR,,0.00,WeatherDisplay:10.37,2013-02-27 23:03:00,
2013-02-27 17:08:00,40.1,25.2,29.35,NW,316,7.2,8.7,55,0.00,CLR,,0.00,WeatherDisplay:10.37,2013-02-27 23:08:00,
2013-02-27 17:13:00,39.9,25.0,29.35,NNW,339,6.7,8.7,55,0.00,CLR,,0.00,WeatherDisplay:10.37,2013-02-27 23:13:00,
2013-02-27 17:18:00,39.7,24.9,29.35,NW,306,11.8,15.0,55,0.00,CLR,,0.00,WeatherDisplay:10.37,2013-02-27 23:18:00,
2013-02-27 17:23:00,39.7,24.9,27.00,WNW,300,4.9,10.4,55,0.00,CLR,,0.00,WeatherDisplay:10.37,2013-02-27 23:23:00,
2013-02-27 17:28:00,39.4,24.5,27.00,West,274,6.7,10.4,55,0.00,CLR,,0.00,WeatherDisplay:10.37,2013-02-27 23:28:00,
2013-02-27 17:33:00,39.2,24.4,27.00,WNW,292,5.8,6.9,55,0.00,CLR,,0.00,WeatherDisplay:10.37,2013-02-27 23:33:00,
2013-02-27 17:38:00,39.2,24.4,29.62,NW,318,7.6,10.4,55,0.00,CLR,,0.00,WeatherDisplay:10.37,2013-02-27 23:38:00,
2013-02-27 17:43:00,38.8,24.0,29.62,NW,319,6.3,10.4,55,0.00,CLR,,0.00,WeatherDisplay:10.37,2013-02-27 23:43:00,
2013-02-27 17:48:00,38.8,24.0,29.62,WNW,290,7.2,11.5,55,0.00,CLR,,0.00,WeatherDisplay:10.37,2013-02-27 23:48:00,
2013-02-27 17:53:00,38.7,23.9,26.71,WNW,292,7.6,9.2,55,0.00,CLR,,0.00,WeatherDisplay:10.37,2013-02-27 23:53:00,
2013-02-27 17:58:00,38.7,23.9,26.71,WNW,296,4.9,8.0,55,0.00,CLR,,0.00,WeatherDisplay:10.37,2013-02-27 23:58:00,
2013-02-27 18:03:00,38.5,23.7,26.71,WNW,282,8.3,12.7,55,0.00,CLR,,0.00,WeatherDisplay:10.37,2013-02-28 00:03:00,
2013-02-27 18:08:00,38.3,23.5,27.60,West,259,7.2,9.2,55,0.00,CLR,,0.00,WeatherDisplay:10.37,2013-02-28 00:08:00,
2013-02-27 18:13:00,38.1,23.4,27.60,NNW,329,6.7,8.1,55,0.00,CLR,,0.00,WeatherDisplay:10.37,2013-02-28 00:13:00,
2013-02-27 18:18:00,37.9,23.6,27.60,West,274,8.3,12.7,56,0.00,CLR,,0.00,WeatherDisplay:10.37,2013-02-28 00:18:00,
2013-02-27 18:23:00,37.6,22.9,29.78,West,261,8.0,10.4,55,0.00,CLR,,0.00,WeatherDisplay:10.37,2013-02-28 00:23:00,
2013-02-27 18:28:00,37.4,23.1,29.78,NW,306,8.0,11.5,56,0.00,CLR,,0.00,WeatherDisplay:10.37,2013-02-28 00:28:00,
2013-02-27 18:33:00,37.2,22.9,29.78,WNW,283,8.0,11.5,56,0.00,CLR,,0.00,WeatherDisplay:10.37,2013-02-28 00:33:00,
2013-02-27 18:38:00,37.0,22.8,27.33,West,281,8.7,11.5,56,0.00,CLR,,0.00,WeatherDisplay:10.37,2013-02-28 00:38:00,
2013-02-27 18:43:00,36.9,22.6,27.33,WNW,298,6.3,8.1,56,0.00,CLR,,0.00,WeatherDisplay:10.37,2013-02-28 00:43:00,
2013-02-27 18:48:00,36.9,22.6,27.33,NW,306,8.3,15.0,56,0.00,CLR,,0.00,WeatherDisplay:10.37,2013-02-28 00:48:00,
2013-02-27 18:53:00,36.9,22.6,27.36,NW,319,6.3,11.5,56,0.00,CLR,,0.00,WeatherDisplay:10.37,2013-02-28 00:53:00,
2013-02-27 18:58:00,36.9,22.6,27.36,NNW,344,5.8,8.1,56,0.00,CLR,,0.00,WeatherDisplay:10.37,2013-02-28 00:58:00,
2013-02-27 19:03:00,36.9,22.6,27.36,North,7,6.7,15.0,56,0.00,CLR,,0.00,WeatherDisplay:10.37,2013-02-28 01:03:00,
2013-02-27 19:08:00,36.7,22.4,27.36,West,271,5.4,8.1,56,0.00,CLR,,0.00,WeatherDisplay:10.37,2013-02-28 01:08:00,
2013-02-27 19:13:00,36.7,22.4,27.36,North,353,4.9,10.4,56,0.00,CLR,,0.00,WeatherDisplay:10.37,2013-02-28 01:13:00,
2013-02-27 19:18:00,36.7,22.4,27.36,NNW,345,7.2,10.4,56,0.00,CLR,,0.00,WeatherDisplay:10.37,2013-02-28 01:18:00,
2013-02-27 19:23:00,36.5,22.3,29.31,NNW,345,7.2,8.1,56,0.00,CLR,,0.00,WeatherDisplay:10.37,2013-02-28 01:23:00,
2013-02-27 19:28:00,36.5,22.3,29.31,NW,305,7.2,10.4,56,0.00,CLR,,0.00,WeatherDisplay:10.37,2013-02-28 01:28:00,
2013-02-27 19:33:00,36.5,22.3,29.31,NW,315,6.3,11.5,56,0.00,CLR,,0.00,WeatherDisplay:10.37,2013-02-28 01:33:00,
2013-02-27 19:38:00,36.5,22.3,29.78,NW,315,6.7,8.1,56,0.00,CLR,,0.00,WeatherDisplay:10.37,2013-02-28 01:38:00,
2013-02-27 19:43:00,36.3,22.1,29.78,WNW,289,4.5,8.1,56,0.00,CLR,,0.00,WeatherDisplay:10.37,2013-02-28 01:43:00,
2013-02-27 19:48:00,36.3,22.1,29.78,WNW,292,5.4,11.5,56,0.00,CLR,,0.00,WeatherDisplay:10.37,2013-02-28 01:48:00,
2013-02-27 19:53:00,36.5,22.3,26.83,NNW,327,5.4,8.7,56,0.00,CLR,,0.00,WeatherDisplay:10.37,2013-02-28 01:53:00,
2013-02-27 19:58:00,36.5,22.3,26.83,NW,304,6.7,13.6,56,0.00,CLR,,0.00,WeatherDisplay:10.37,2013-02-28 01:58:00,
2013-02-27 20:03:00,36.5,22.3,26.83,NW,305,7.6,12.7,56,0.00,CLR,,0.00,WeatherDisplay:10.37,2013-02-28 02:03:00,
2013-02-27 20:08:00,36.5,22.3,30.43,NW,304,5.8,6.3,56,0.00,CLR,,0.00,WeatherDisplay:10.37,2013-02-28 02:08:00,
2013-02-27 20:13:00,36.3,22.1,30.43,WNW,288,7.6,8.1,56,0.00,CLR,,0.00,WeatherDisplay:10.37,2013-02-28 02:13:00,
2013-02-27 20:18:00,36.3,22.1,30.43,NW,309,7.2,9.2,56,0.00,CLR,,0.00,WeatherDisplay:10.37,2013-02-28 02:18:00,
2013-02-27 20:23:00,36.3,22.1,27.48,WNW,302,6.3,10.4,56,0.00,CLR,,0.00,WeatherDisplay:10.37,2013-02-28 02:23:00,
2013-02-27 20:28:00,36.3,22.1,27.48,West,259,4.9,5.8,56,0.00,CLR,,0.00,WeatherDisplay:10.37,2013-02-28 02:28:00,
2013-02-27 20:33:00,36.1,22.4,27.48,West,267,5.4,8.1,57,0.00,CLR,,0.00,WeatherDisplay:10.37,2013-02-28 02:33:00,
2013-02-27 20:38:00,36.1,22.4,27.45,NNW,334,5.8,5.8,57,0.00,CLR,,0.00,WeatherDisplay:10.37,2013-02-28 02:38:00,
2013-02-27 20:43:00,36.1,22.4,27.45,WNW,291,5.4,6.9,57,0.00,CLR,,0.00,WeatherDisplay:10.37,2013-02-28 02:43:00,
2013-02-27 20:48:00,36.1,22.4,27.45,NW,318,5.8,10.4,57,0.00,CLR,,0.00,WeatherDisplay:10.37,2013-02-28 02:48:00,
2013-02-27 20:53:00,36.1,22.4,30.90,NNW,339,6.3,6.9,57,0.00,CLR,,0.00,WeatherDisplay:10.37,2013-02-28 02:53:00,
2013-02-27 20:58:00,36.1,22.4,30.90,West,265,7.6,11.5,57,0.00,CLR,,0.00,WeatherDisplay:10.37,2013-02-28 02:58:00,
2013-02-27 21:03:00,36.0,22.2,30.90,NNW,329,5.8,8.1,57,0.00,CLR,,0.00,WeatherDisplay:10.37,2013-02-28 03:03:00,
2013-02-27 21:08:00,36.0,22.2,26.59,WNW,298,4.5,8.1,57,0.00,CLR,,0.00,WeatherDisplay:10.37,2013-02-28 03:08:00,
2013-02-27 21:13:00,35.8,22.0,26.59,NW,316,7.2,8.1,57,0.00,CLR,,0.00,WeatherDisplay:10.37,2013-02-28 03:13:00,
2013-02-27 21:18:00,35.8,22.0,26.59,NNW,340,4.9,8.1,57,0.00,CLR,,0.00,WeatherDisplay:10.37,2013-02-28 03:18:00,
2013-02-27 21:23:00,35.8,22.0,30.67,North,353,3.6,5.8,57,0.00,CLR,,0.00,WeatherDisplay:10.37,2013-02-28 03:23:00,
2013-02-27 21:28:00,35.8,22.0,30.67,NW,310,9.2,11.5,57,0.00,CLR,,0.00,WeatherDisplay:10.37,2013-02-28 03:28:00,
2013-02-27 21:33:00,35.8,22.0,30.67,WNW,284,6.7,8.1,57,0.00,CLR,,0.00,WeatherDisplay:10.37,2013-02-28 03:33:00,
2013-02-27 21:38:00,35.6,21.9,26.71,NW,323,7.6,10.4,57,0.00,CLR,,0.00,WeatherDisplay:10.37,2013-02-28 03:38:00,
2013-02-27 21:43:00,35.6,21.9,26.71,WNW,287,5.4,8.1,57,0.00,CLR,,0.00,WeatherDisplay:10.37,2013-02-28 03:43:00,
2013-02-27 21:48:00,35.6,21.9,26.71,WNW,299,5.8,9.2,57,0.00,CLR,,0.00,WeatherDisplay:10.37,2013-02-28 03:48:00,
2013-02-27 21:53:00,35.6,21.9,27.45,WNW,298,6.3,8.7,57,0.00,CLR,,0.00,WeatherDisplay:10.37,2013-02-28 03:53:00,
2013-02-27 21:58:00,35.6,21.9,27.45,NW,316,8.0,9.2,57,0.00,CLR,,0.00,WeatherDisplay:10.37,2013-02-28 03:58:00,
2013-02-27 22:03:00,35.6,22.3,27.45,NW,313,4.5,5.8,58,0.00,CLR,,0.00,WeatherDisplay:10.37,2013-02-28 04:03:00,
2013-02-27 22:08:00,35.6,22.3,26.71,NNW,327,4.0,8.1,58,0.00,CLR,,0.00,WeatherDisplay:10.37,2013-02-28 04:08:00,
2013-02-27 22:13:00,35.6,21.9,26.71,WNW,292,6.3,8.1,57,0.00,CLR,,0.00,WeatherDisplay:10.37,2013-02-28 04:13:00,
2013-02-27 22:18:00,35.6,22.3,26.71,WNW,299,5.4,5.8,58,0.00,CLR,,0.00,WeatherDisplay:10.37,2013-02-28 04:18:00,
2013-02-27 22:23:00,35.6,21.9,27.00,WSW,239,7.6,10.4,57,0.00,CLR,,0.00,WeatherDisplay:10.37,2013-02-28 04:23:00,
2013-02-27 22:28:00,35.6,22.3,27.00,NW,318,8.3,10.4,58,0.00,CLR,,0.00,WeatherDisplay:10.37,2013-02-28 04:28:00,
2013-02-27 22:33:00,35.6,22.3,27.00,West,275,4.9,8.3,58,0.00,CLR,,0.00,WeatherDisplay:10.37,2013-02-28 04:33:00,
2013-02-27 22:38:00,35.6,22.3,27.45,NNW,331,3.6,8.7,58,0.00,CLR,,0.00,WeatherDisplay:10.37,2013-02-28 04:38:00,
2013-02-27 22:43:00,35.6,22.3,27.45,West,272,5.4,5.8,58,0.00,CLR,,0.00,WeatherDisplay:10.37,2013-02-28 04:43:00,
2013-02-27 22:48:00,35.6,22.3,27.45,NW,313,6.3,10.4,58,0.00,CLR,,0.00,WeatherDisplay:10.37,2013-02-28 04:48:00,
2013-02-27 22:53:00,35.6,22.3,27.21,North,357,4.5,8.7,58,0.00,CLR,,0.00,WeatherDisplay:10.37,2013-02-28 04:53:00,
2013-02-27 22:58:00,35.6,22.3,27.21,NW,324,7.2,9.2,58,0.00,CLR,,0.00,WeatherDisplay:10.37,2013-02-28 04:58:00,
2013-02-27 23:00:00,35.8,22.4,27.21,WNW,301,6.7,10.4,58,0.00,CLR,,0.00,WeatherDisplay:10.37,2013-02-28 05:00:00,
2013-02-27 23:01:00,35.6,22.3,27.21,West,271,5.4,5.8,58,0.00,CLR,,0.00,WeatherDisplay:10.37,2013-02-28 05:01:00,
2013-02-27 23:02:00,35.6,22.3,27.21,West,273,5.4,6.9,58,0.00,CLR,,0.00,WeatherDisplay:10.37,2013-02-28 05:02:00,
2013-02-27 23:07:00,35.6,22.3,27.21,NNW,327,4.9,5.8,58,0.00,CLR,,0.00,WeatherDisplay:10.37,2013-02-28 05:07:00,
2013-02-27 23:12:00,35.6,22.3,27.21,NW,305,6.3,8.1,58,0.00,CLR,,0.00,WeatherDisplay:10.37,2013-02-28 05:12:00,
2013-02-27 23:17:00,35.6,22.3,27.21,North,353,3.6,5.8,58,0.00,CLR,,0.00,WeatherDisplay:10.37,2013-02-28 05:17:00,
2013-02-27 23:22:00,35.6,22.3,27.21,WNW,287,4.0,5.8,58,0.00,CLR,,0.00,WeatherDisplay:10.37,2013-02-28 05:22:00,
2013-02-27 23:27:00,35.6,22.3,27.21,NNW,348,5.8,10.4,58,0.00,CLR,,0.00,WeatherDisplay:10.37,2013-02-28 05:27:00,
2013-02-27 23:32:00,35.6,22.3,27.21,NNW,329,5.4,5.8,58,0.00,CLR,,0.00,WeatherDisplay:10.37,2013-02-28 05:32:00,
2013-02-27 23:37:00,35.6,22.3,27.21,WNW,297,5.4,6.9,58,0.00,CLR,,0.00,WeatherDisplay:10.37,2013-02-28 05:37:00,
2013-02-27 23:42:00,35.6,22.3,27.21,NW,323,7.2,10.5,58,0.00,CLR,,0.00,WeatherDisplay:10.37,2013-02-28 05:42:00,
2013-02-27 23:47:00,35.6,21.9,27.21,WNW,299,5.8,11.5,57,0.00,CLR,,0.00,WeatherDisplay:10.37,2013-02-28 05:47:00,
2013-02-27 23:52:00,35.6,21.9,27.45,NW,315,8.7,12.7,57,0.00,CLR,,0.00,WeatherDisplay:10.37,2013-02-28 05:52:00,
2013-02-27 23:57:00,35.6,21.9,27.45,NW,307,5.4,5.8,57,0.00,CLR,,0.00,WeatherDisplay:10.37,2013-02-28 05:57:00,